Latest Weather Observations for Kingfish B

IDV60801

Issued at 11:32 am EST Saturday 29 April 2017 (issued every 30 minutes, with the page automatically refreshed every 10 minutes)

About weather observations | Map of weather stations | Latest weather observations for VIC | Other Formats
Station Details ID: 400139 Name: KINGFISH B (PLATFORM) Lat: -38.60 Lon: 148.19 Height: 31.4 m
Data from the previous 72 hours. | See also: Recent months for locations in Victoria
Date/Time
EST
Temp
°C
App
Temp
°C
Dew
Point
°C
Rel
Hum
%
Delta-T
°C
Wind Press
QNH
hPa
Press
MSL
hPa
Rain since
9am
mm
Dir  Spd
km/h
Gust
km/h
Spd
kts
Gust
kts
29/11:20am 18.1 11.7 13.1 72 2.8 SW 39 50 21 27 1018.8 - -
29/11:10am 18.2 13.0 13.3 73 2.8 SW 33 41 18 22 1018.9 - -
29/11:00am 18.3 12.7 13.3 72 2.8 SW 35 44 19 24 1018.8 - -
29/10:50am 18.5 12.6 13.7 73 2.7 SW 37 48 20 26 1018.8 - -
29/10:40am 18.2 12.3 13.5 74 2.7 SW 37 46 20 25 1018.5 - -
29/10:30am 18.2 12.0 13.8 75 2.5 SW 39 50 21 27 1018.3 - -
29/10:20am 17.9 11.7 13.8 77 2.3 SW 39 48 21 26 1018.4 - -
29/10:10am 18.1 13.1 14.0 77 2.3 SW 33 43 18 23 1018.4 - -
29/10:00am 18.4 13.7 14.3 77 2.4 WSW 32 39 17 21 1018.4 - -
29/09:50am 18.4 13.2 14.5 78 2.3 WSW 35 43 19 23 1018.4 - -
29/09:40am 18.1 12.1 14.5 79 2.1 WSW 39 46 21 25 1018.2 - -
29/09:30am 17.7 11.7 14.5 81 1.8 SW 39 48 21 26 1018.1 - -
29/09:20am 17.4 11.4 14.4 82 1.7 SW 39 50 21 27 1017.9 - -
29/09:10am 17.2 11.2 14.4 83 1.6 SW 39 48 21 26 1017.9 - -
29/09:00am 17.0 10.6 14.2 83 1.6 WSW 41 46 22 25 1017.9 - -
29/08:50am 16.8 10.6 13.9 83 1.6 SW 39 50 21 27 1018.0 - -
29/08:40am 17.1 10.2 13.9 81 1.8 WSW 43 56 23 30 1017.9 - -
29/08:30am 17.1 9.9 13.8 81 1.9 WSW 44 54 24 29 1017.6 - -
29/08:20am 17.1 9.9 13.7 80 1.9 WSW 44 54 24 29 1017.4 - -
29/08:10am 17.1 10.1 13.8 81 1.9 WSW 43 52 23 28 1017.5 - -
29/08:00am 17.0 10.4 13.8 81 1.8 WSW 41 50 22 27 1017.6 - -
29/07:50am 17.1 10.9 13.8 81 1.9 WSW 39 48 21 26 1017.6 - -
29/07:40am 17.0 10.8 13.8 81 1.8 WSW 39 48 21 26 1017.5 - -
29/07:30am 16.9 11.1 13.9 82 1.7 WSW 37 44 20 24 1017.5 - -
29/07:20am 16.8 11.0 14.0 83 1.6 WSW 37 46 20 25 1017.4 - -
29/07:10am 16.7 10.5 13.9 83 1.6 WSW 39 46 21 25 1017.3 - -
29/07:00am 16.5 11.4 13.6 83 1.6 SW 33 43 18 23 1017.3 - -
29/06:50am 16.7 9.4 13.4 81 1.9 SW 44 56 24 30 1017.0 - -
29/06:40am 17.0 8.9 13.3 79 2.1 WSW 48 59 26 32 1016.7 - -
29/06:30am 17.1 9.0 13.3 78 2.1 WSW 48 59 26 32 1016.7 - -
29/06:20am 17.2 9.2 13.4 78 2.1 WSW 48 57 26 31 1016.6 - -
29/06:10am 17.1 10.0 13.4 79 2.1 WSW 43 54 23 29 1016.7 - -
29/06:00am 17.1 10.4 13.4 79 2.1 WSW 41 50 22 27 1016.7 - -
29/05:50am 17.1 10.0 13.4 79 2.1 WSW 43 56 23 30 1016.8 - -
29/05:40am 17.1 9.1 13.5 79 2.0 WSW 48 57 26 31 1016.7 - -
29/05:30am 17.1 9.1 13.5 79 2.0 WSW 48 57 26 31 1016.6 - -
29/05:20am 17.1 10.0 13.5 79 2.0 WSW 43 50 23 27 1016.8 - -
29/05:10am 17.0 9.9 13.4 79 2.0 WSW 43 48 23 26 1016.8 - -
29/05:00am 17.1 10.0 13.4 79 2.1 WSW 43 52 23 28 1016.8 - -
29/04:50am 17.2 8.7 13.3 78 2.2 WSW 50 61 27 33 1016.6 - -
29/04:40am 17.2 8.8 13.4 78 2.1 WSW 50 57 27 31 1016.5 - -
29/04:30am 17.1 9.1 13.4 79 2.1 WSW 48 56 26 30 1016.5 - -
29/04:20am 17.0 9.0 13.4 79 2.0 WSW 48 61 26 33 1016.4 - -
29/04:10am 17.2 9.1 13.3 78 2.2 WSW 48 63 26 34 1016.5 - -
29/04:00am 17.2 10.8 13.3 78 2.2 WSW 39 50 21 27 1016.7 - -
29/03:50am 17.3 10.9 13.2 77 2.3 WSW 39 48 21 26 1016.7 - -
29/03:30am 17.4 10.0 13.1 76 2.4 WSW 44 56 24 30 1016.3 - -
29/03:20am 17.4 9.6 13.1 76 2.4 WSW 46 54 25 29 1016.3 - -
29/03:10am 17.3 9.6 13.2 77 2.3 WSW 46 56 25 30 1016.3 - -
29/03:00am 17.3 9.2 13.1 76 2.4 WSW 48 59 26 32 1016.1 - -
29/02:50am 17.4 9.6 13.1 76 2.4 WSW 46 57 25 31 1016.3 - -
29/02:40am 17.4 10.0 13.1 76 2.4 WSW 44 57 24 31 1016.4 - -
29/02:30am 17.5 9.7 13.1 75 2.5 WSW 46 56 25 30 1016.5 - -
29/02:20am 17.5 9.7 13.1 75 2.5 WSW 46 56 25 30 1016.7 - -
29/02:10am 17.5 10.1 13.1 75 2.5 WSW 44 57 24 31 1016.8 - -
29/02:00am 17.6 10.2 13.1 75 2.5 WSW 44 59 24 32 1017.0 - -
29/01:50am 17.5 9.7 13.0 75 2.5 WSW 46 59 25 32 1017.0 - -
29/01:40am 17.6 10.2 13.1 75 2.5 WSW 44 56 24 30 1017.1 - -
29/01:30am 17.5 10.3 13.1 75 2.5 WSW 43 54 23 29 1017.2 - -
29/01:20am 17.5 10.8 13.4 77 2.3 WSW 41 56 22 30 1017.2 - -
29/01:10am 17.5 10.8 13.4 77 2.3 WSW 41 50 22 27 1017.3 - -
29/01:00am 17.5 10.8 13.3 76 2.4 WSW 41 54 22 29 1017.2 - -
29/12:50am 17.5 10.4 13.4 77 2.3 WSW 43 52 23 28 1017.4 - -
29/12:40am 17.5 10.2 13.3 76 2.4 WSW 44 56 24 30 1017.4 - -
29/12:30am 17.5 9.8 13.2 76 2.4 WSW 46 56 25 30 1017.3 - -
29/12:20am 17.5 10.2 13.3 76 2.4 WSW 44 54 24 29 1017.5 - -
29/12:10am 17.4 10.1 13.3 77 2.3 WSW 44 57 24 31 1017.5 - -
29/12:00am 17.7 10.3 13.2 75 2.5 WSW 44 54 24 29 1017.6 - -
 
Date/Time
EST
Temp
°C
App
Temp
°C
Dew
Point
°C
Rel
Hum
%
Delta-T
°C
Wind Press
QNH
hPa
Press
MSL
hPa
Rain since
9am
mm
Dir  Spd
km/h
Gust
km/h
Spd
kts
Gust
kts
28/11:50pm 18.0 10.8 13.0 72 2.8 WSW 43 54 23 29 1017.7 - -
28/11:40pm 18.6 12.0 13.6 72 2.8 WSW 41 50 22 27 1017.7 - -
28/11:30pm 17.9 11.6 13.5 75 2.5 WSW 39 50 21 27 1017.8 - -
28/11:20pm 17.6 10.8 13.2 75 2.5 WSW 41 52 22 28 1017.8 - -
28/11:10pm 17.6 12.0 13.2 75 2.5 WSW 35 44 19 24 1018.0 - -
28/11:00pm 17.7 11.0 13.3 75 2.5 WSW 41 52 22 28 1018.0 - -
28/10:50pm 17.7 11.0 13.3 75 2.5 WSW 41 50 22 27 1018.0 - -
28/10:40pm 17.7 10.3 13.2 75 2.5 WSW 44 54 24 29 1017.9 - -
28/10:30pm 17.7 9.9 13.1 74 2.6 WSW 46 56 25 30 1018.0 - -
28/10:20pm 17.7 9.6 13.1 74 2.6 WSW 48 57 26 31 1018.0 - -
28/10:10pm 17.7 10.3 13.2 75 2.5 WSW 44 56 24 30 1018.0 - -
28/10:00pm 17.7 10.5 13.1 74 2.6 WSW 43 54 23 29 1018.2 - -
28/09:50pm 17.8 10.4 13.2 74 2.6 WSW 44 57 24 31 1018.2 - -
28/09:40pm 17.8 12.5 13.1 74 2.6 WSW 33 48 18 26 1018.5 - -
28/09:30pm 17.8 12.5 13.0 73 2.7 WSW 33 41 18 22 1018.6 - -
28/09:20pm 17.8 13.0 12.9 73 2.7 WSW 30 41 16 22 1018.8 - -
28/09:10pm 17.9 13.1 13.0 73 2.8 WSW 30 37 16 20 1018.9 - -
28/09:00pm 17.9 12.8 13.0 73 2.8 WSW 32 39 17 21 1018.8 - -
28/08:50pm 17.8 13.0 12.9 73 2.7 WSW 30 35 16 19 1018.7 - -
28/08:40pm 17.8 13.0 12.9 73 2.7 WSW 30 37 16 20 1018.7 - -
28/08:30pm 17.8 12.4 12.8 72 2.8 WSW 33 41 18 22 1018.7 - -
28/08:20pm 17.8 12.1 12.9 73 2.7 WSW 35 43 19 23 1018.7 - -
28/08:10pm 17.8 11.7 12.9 73 2.7 WSW 37 46 20 25 1018.7 - -
28/08:00pm 17.8 10.5 12.9 73 2.7 WSW 43 50 23 27 1018.6 - -
28/07:50pm 17.8 11.7 12.9 73 2.7 WSW 37 52 20 28 1018.7 - -
28/07:40pm 17.6 10.7 12.7 73 2.7 WSW 41 50 22 27 1018.5 - -
28/07:30pm 17.6 10.7 12.7 73 2.7 SW 41 48 22 26 1018.4 - -
28/07:20pm 17.6 10.3 12.7 73 2.7 SW 43 50 23 27 1018.3 - -
28/07:10pm 17.6 10.7 12.7 73 2.7 WSW 41 50 22 27 1018.4 - -
28/07:00pm 17.5 10.1 12.6 73 2.7 WSW 43 52 23 28 1018.4 - -
28/06:50pm 17.6 10.3 12.7 73 2.7 WSW 43 52 23 28 1018.4 - -
28/06:40pm 17.7 10.4 12.7 72 2.8 WSW 43 52 23 28 1018.3 - -
28/06:30pm 17.7 10.2 12.7 72 2.8 WSW 44 56 24 30 1018.3 - -
28/06:20pm 17.8 10.5 12.8 72 2.8 WSW 43 54 23 29 1018.4 - -
28/06:10pm 17.8 9.9 12.8 72 2.8 WSW 46 57 25 31 1018.2 - -
28/06:00pm 17.8 9.1 12.7 72 2.8 SW 50 61 27 33 1018.0 - -
28/05:50pm 18.1 10.9 13.0 72 2.9 WSW 43 59 23 32 1018.3 - -
28/05:40pm 18.1 12.3 12.8 71 3.0 WSW 35 44 19 24 1018.4 - -
28/05:30pm 18.2 11.7 12.9 71 3.0 WSW 39 48 21 26 1018.4 - -
28/05:20pm 18.2 12.5 12.9 71 3.0 WSW 35 43 19 23 1018.4 - -
28/05:10pm 18.2 12.4 12.8 71 3.0 WSW 35 43 19 23 1018.3 - -
28/05:00pm 18.2 12.8 12.9 71 3.0 WSW 33 41 18 22 1018.3 - -
28/04:50pm 18.3 12.9 12.9 71 3.0 WSW 33 41 18 22 1018.3 - -
28/04:40pm 18.4 12.7 12.9 70 3.1 WSW 35 44 19 24 1018.4 - -
28/04:30pm 18.4 12.2 12.7 69 3.2 WSW 37 44 20 24 1018.4 - -
28/04:20pm 18.4 12.6 12.7 69 3.2 WSW 35 46 19 25 1018.4 - -
28/04:10pm 18.4 13.0 12.8 70 3.1 WSW 33 41 18 22 1018.4 - -
28/04:00pm 18.5 12.7 12.7 69 3.2 WSW 35 41 19 22 1018.4 - -
28/03:50pm 18.5 13.1 12.7 69 3.2 WSW 33 39 18 21 1018.5 - -
28/03:40pm 18.5 13.0 12.6 68 3.3 WSW 33 41 18 22 1018.4 - -
28/03:30pm 18.5 12.7 12.7 69 3.2 WSW 35 41 19 22 1018.4 - -
28/03:20pm 18.5 13.3 12.8 69 3.2 WSW 32 37 17 20 1018.5 - -
28/03:10pm 18.5 13.3 12.7 69 3.2 WSW 32 37 17 20 1018.5 - -
28/03:00pm 18.5 13.0 12.5 68 3.3 WSW 33 41 18 22 1018.4 - -
28/02:50pm 18.5 13.2 12.5 68 3.3 WSW 32 39 17 21 1018.5 - -
28/02:40pm 18.5 13.2 12.5 68 3.3 WSW 32 37 17 20 1018.5 - -
28/02:30pm 18.4 13.8 12.4 68 3.3 WSW 28 35 15 19 1018.6 - -
28/02:20pm 18.3 13.6 12.1 67 3.4 WSW 28 33 15 18 1018.6 - -
28/02:10pm 18.6 14.3 12.0 65 3.7 WSW 26 33 14 18 1018.6 - -
28/01:50pm 18.3 13.6 12.0 66 3.5 WSW 28 33 15 18 1018.6 - -
28/01:40pm 18.2 13.1 11.9 66 3.5 WSW 30 39 16 21 1018.6 - -
28/01:30pm 18.2 12.7 12.0 67 3.4 WSW 32 37 17 20 1018.6 - -
28/01:20pm 18.2 13.1 11.9 66 3.5 WSW 30 37 16 20 1018.8 - -
28/01:10pm 18.1 13.4 12.0 67 3.4 WSW 28 35 15 19 1019.0 - -
28/01:00pm 18.1 13.0 11.8 66 3.5 WSW 30 33 16 18 1019.1 - -
28/12:50pm 17.9 13.1 11.8 67 3.3 WSW 28 33 15 18 1019.3 - -
28/12:40pm 18.0 12.9 11.8 67 3.4 WSW 30 37 16 20 1019.4 - -
28/12:30pm 17.8 12.3 11.9 68 3.2 WSW 32 37 17 20 1019.5 - -
28/12:20pm 17.9 12.8 11.9 68 3.3 WSW 30 37 16 20 1019.5 - -
28/12:10pm 17.8 12.7 11.8 68 3.3 WSW 30 37 16 20 1019.7 - -
28/12:00pm 17.9 12.8 11.8 67 3.3 WSW 30 37 16 20 1019.8 - -
28/11:50am 18.3 13.3 12.2 67 3.4 WSW 30 35 16 19 1019.9 - -
28/11:40am 17.9 13.2 12.1 69 3.2 WSW 28 35 15 19 1020.2 - -
28/11:30am 17.8 12.7 12.0 69 3.2 WSW 30 33 16 18 1020.3 - -
28/11:20am 17.8 13.1 12.0 69 3.2 WSW 28 35 15 19 1020.3 - -
28/11:10am 17.8 12.7 11.9 68 3.2 WSW 30 37 16 20 1020.3 - -
28/11:00am 17.7 12.6 11.9 69 3.2 WSW 30 37 16 20 1020.3 - -
28/10:50am 17.6 12.1 11.8 69 3.2 WSW 32 37 17 20 1020.3 - -
28/10:40am 17.6 12.5 11.8 69 3.2 WSW 30 37 16 20 1020.2 - -
28/10:30am 17.5 12.4 12.0 70 3.0 WSW 30 37 16 20 1020.1 - -
28/10:20am 17.1 12.4 11.9 71 2.8 WSW 28 35 15 19 1020.2 - -
28/10:10am 17.0 12.3 11.9 72 2.8 WSW 28 35 15 19 1020.2 - -
28/10:00am 16.9 11.4 11.7 71 2.8 WSW 32 39 17 21 1020.2 - -
28/09:50am 16.8 11.6 11.6 71 2.8 WSW 30 39 16 21 1020.4 - -
28/09:40am 16.8 11.6 11.6 71 2.8 WSW 30 37 16 20 1020.4 - -
28/09:30am 16.7 11.9 11.5 71 2.8 WSW 28 35 15 19 1020.6 - -
28/09:20am 16.5 11.3 11.5 72 2.7 WSW 30 37 16 20 1020.5 - -
28/09:10am 16.4 10.6 11.5 73 2.7 WSW 33 41 18 22 1020.4 - -
28/09:00am 16.2 10.4 11.4 73 2.6 WSW 33 41 18 22 1020.4 - -
28/08:50am 16.3 10.7 11.4 73 2.6 WSW 32 39 17 21 1020.4 - -
28/08:40am 16.3 11.0 11.4 73 2.6 WSW 30 39 16 21 1020.5 - -
28/08:30am 16.3 11.4 11.4 73 2.6 W 28 37 15 20 1020.5 - -
28/08:20am 16.3 11.4 11.4 73 2.6 W 28 33 15 18 1020.4 - -
28/08:10am 16.3 11.4 11.4 73 2.6 W 28 35 15 19 1020.4 - -
28/08:00am 16.1 11.5 11.2 72 2.6 W 26 35 14 19 1020.3 - -
28/07:50am 16.0 11.4 11.2 73 2.6 W 26 32 14 17 1020.3 - -
28/07:40am 15.8 11.2 11.1 73 2.5 W 26 32 14 17 1020.2 - -
28/07:30am 15.5 10.1 10.9 74 2.4 W 30 33 16 18 1020.1 - -
28/07:20am 15.5 10.5 10.9 74 2.4 W 28 37 15 20 1020.0 - -
28/07:10am 15.5 10.1 10.8 73 2.5 W 30 37 16 20 1019.8 - -
28/07:00am 15.6 9.8 10.9 73 2.5 WSW 32 39 17 21 1019.8 - -
28/06:50am 15.7 10.3 11.0 73 2.5 W 30 37 16 20 1019.8 - -
28/06:40am 15.6 10.6 10.9 73 2.5 WSW 28 33 15 18 1019.7 - -
28/06:30am 15.6 10.2 10.9 73 2.5 W 30 37 16 20 1019.6 - -
28/06:20am 15.5 10.5 10.8 73 2.5 WSW 28 33 15 18 1019.6 - -
28/06:10am 15.5 11.2 10.7 73 2.5 WSW 24 32 13 17 1019.5 - -
28/06:00am 15.4 11.1 10.6 73 2.5 WSW 24 32 13 17 1019.4 - -
28/05:50am 15.4 10.7 10.6 73 2.5 WSW 26 35 14 19 1019.4 - -
28/05:40am 15.3 9.8 10.4 72 2.6 WSW 30 37 16 20 1019.4 - -
28/05:30am 15.3 9.8 10.4 72 2.6 WSW 30 35 16 19 1019.3 - -
28/05:20am 15.2 9.7 10.4 73 2.5 WSW 30 35 16 19 1019.3 - -
28/05:10am 15.2 9.7 10.4 73 2.5 WSW 30 37 16 20 1019.0 - -
28/05:00am 15.2 9.1 10.4 73 2.5 WSW 33 41 18 22 1018.9 - -
28/04:50am 15.2 8.7 10.5 73 2.5 WSW 35 41 19 22 1018.8 - -
28/04:40am 15.4 9.4 10.7 73 2.5 WSW 33 41 18 22 1018.7 - -
28/04:30am 15.2 9.1 10.5 73 2.5 WSW 33 39 18 21 1018.8 - -
28/04:20am 15.2 9.3 10.4 73 2.5 WSW 32 39 17 21 1018.8 - -
28/04:10am 15.2 9.3 10.3 72 2.6 WSW 32 41 17 22 1018.8 - -
28/04:00am 15.2 9.1 10.4 73 2.5 WSW 33 41 18 22 1018.9 - -
28/03:50am 15.2 9.3 10.4 73 2.5 WSW 32 37 17 20 1018.9 - -
28/03:40am 15.1 10.3 10.2 72 2.6 WSW 26 33 14 18 1018.9 - -
28/03:30am 15.1 10.6 10.1 72 2.6 WSW 24 32 13 17 1018.9 - -
28/03:20am 15.2 10.0 10.2 72 2.6 WSW 28 33 15 18 1019.0 - -
28/03:10am 15.3 10.5 10.2 71 2.7 WSW 26 35 14 19 1019.0 - -
28/03:00am 15.3 10.1 10.1 71 2.7 WSW 28 33 15 18 1019.0 - -
28/02:50am 15.3 10.1 10.1 71 2.7 WSW 28 35 15 19 1019.0 - -
28/02:40am 15.3 9.7 10.1 71 2.7 WSW 30 35 16 19 1018.9 - -
28/02:30am 15.3 10.0 9.9 70 2.8 WSW 28 32 15 17 1019.0 - -
28/02:20am 15.3 10.0 9.9 70 2.8 WSW 28 35 15 19 1019.0 - -
28/02:10am 15.3 10.0 9.8 69 2.9 WSW 28 35 15 19 1019.1 - -
28/02:00am 15.2 9.4 9.5 69 2.9 WSW 30 37 16 20 1019.1 - -
28/01:50am 15.3 9.5 9.6 69 3.0 WSW 30 37 16 20 1019.1 - -
28/01:40am 15.3 9.1 9.5 68 3.0 WSW 32 37 17 20 1019.2 - -
28/01:30am 15.3 9.5 9.5 68 3.0 WSW 30 39 16 21 1019.1 - -
28/01:20am 15.3 9.5 9.4 68 3.0 WSW 30 37 16 20 1019.4 - -
28/01:10am 15.2 9.4 9.5 69 2.9 WSW 30 39 16 21 1019.5 - -
28/01:00am 15.1 9.3 9.4 69 2.9 WSW 30 39 16 21 1019.4 - -
28/12:50am 15.1 10.1 9.6 69 2.8 WSW 26 35 14 19 1019.7 - -
28/12:40am 15.1 9.7 9.5 69 2.9 WSW 28 41 15 22 1019.6 - -
28/12:30am 15.2 9.9 9.7 69 2.9 WSW 28 35 15 19 1019.8 - -
28/12:20am 15.1 10.1 9.4 69 2.9 WSW 26 32 14 17 1019.7 - -
28/12:10am 15.0 10.8 9.7 70 2.7 WSW 22 33 12 18 1019.7 - -
28/12:00am 15.0 10.8 9.8 71 2.7 WSW 22 30 12 16 1019.8 - -
 
Date/Time
EST
Temp
°C
App
Temp
°C
Dew
Point
°C
Rel
Hum
%
Delta-T
°C
Wind Press
QNH
hPa
Press
MSL
hPa
Rain since
9am
mm
Dir  Spd
km/h
Gust
km/h
Spd
kts
Gust
kts
27/11:50pm 14.8 10.2 9.7 71 2.6 WSW 24 30 13 16 1019.7 - -
27/11:40pm 14.8 9.4 9.6 71 2.7 WSW 28 33 15 18 1019.7 - -
27/11:30pm 15.0 9.7 9.7 70 2.7 WSW 28 35 15 19 1019.7 - -
27/11:20pm 14.9 9.9 9.6 70 2.7 WSW 26 33 14 18 1019.5 - -
27/11:10pm 14.9 10.3 9.5 70 2.8 WSW 24 33 13 18 1019.5 - -
27/11:00pm 15.1 10.0 9.2 68 3.0 WSW 26 32 14 17 1019.5 - -
27/10:50pm 15.0 9.7 8.5 65 3.3 SW 26 35 14 19 1019.4 - -
27/10:40pm 15.0 10.1 8.3 64 3.4 SW 24 35 13 19 1019.5 - -
27/10:30pm 15.2 10.0 8.7 65 3.3 SW 26 35 14 19 1019.6 - -
27/10:20pm 15.0 10.1 8.5 65 3.3 SW 24 32 13 17 1019.6 - -
27/10:10pm 15.2 8.6 7.9 61 3.7 SW 32 44 17 24 1019.4 - -
27/09:50pm 15.2 9.7 7.5 60 3.8 SW 26 33 14 18 1019.5 - -
27/09:40pm 15.3 9.4 7.6 60 3.8 SW 28 37 15 20 1019.4 - -
27/09:30pm 15.2 10.0 7.2 59 3.9 SW 24 32 13 17 1019.8 - -
27/09:20pm 15.2 9.2 7.2 59 3.9 SW 28 35 15 19 1019.8 - -
27/09:10pm 15.3 8.9 6.9 57 4.1 SW 30 37 16 20 1019.8 - -
27/09:00pm 15.1 9.0 6.8 57 4.1 SSW 28 37 15 20 1020.1 - -
27/08:50pm 15.0 8.4 6.1 55 4.3 SSW 30 43 16 23 1020.4 - -
27/08:40pm 15.0 9.1 7.4 60 3.8 SW 28 37 15 20 1019.7 - -
27/08:30pm 15.1 8.7 7.1 59 3.9 SW 30 39 16 21 1019.5 - -
27/08:20pm 15.2 8.3 6.3 55 4.3 SW 32 41 17 22 1019.9 - -
27/08:10pm 15.1 8.0 5.7 53 4.5 SW 32 37 17 20 1019.9 - -
27/08:00pm 15.0 7.9 5.5 53 4.5 SW 32 39 17 21 1019.7 - -
27/07:50pm 15.0 7.7 5.6 53 4.5 SW 33 46 18 25 1019.8 - -
27/07:40pm 15.0 7.9 5.3 52 4.6 SW 32 43 17 23 1019.7 - -
27/07:30pm 15.0 7.9 5.5 53 4.5 SW 32 41 17 22 1019.8 - -
27/07:20pm 14.9 7.2 5.4 53 4.5 SW 35 43 19 23 1019.5 - -
27/07:10pm 14.9 7.3 5.7 54 4.4 SW 35 43 19 23 1019.6 - -
27/07:00pm 14.8 7.6 5.9 55 4.3 SW 33 41 18 22 1019.5 - -
27/06:50pm 14.6 7.3 5.6 54 4.3 SW 33 43 18 23 1019.5 - -
27/06:40pm 14.5 7.2 5.4 54 4.3 SW 33 43 18 23 1019.5 - -
27/06:30pm 14.2 8.1 6.5 60 3.7 SW 28 41 15 22 1019.6 - -
27/06:20pm 13.9 9.0 6.8 62 3.4 SW 22 30 12 16 1019.3 - -
27/06:10pm 14.1 7.6 6.5 60 3.7 SW 30 39 16 21 1019.3 - -
27/06:00pm 14.2 7.7 6.5 60 3.7 SW 30 35 16 19 1019.3 - -
27/05:50pm 14.2 7.6 6.1 58 3.9 SW 30 39 16 21 1019.2 - -
27/05:40pm 14.3 7.1 5.9 57 4.0 SW 33 41 18 22 1018.9 - -
27/05:30pm 14.3 7.1 5.8 56 4.0 SW 33 41 18 22 1019.0 - -
27/05:20pm 14.2 7.1 5.4 55 4.1 SW 32 41 17 22 1019.0 - -
27/05:10pm 14.2 7.5 5.6 56 4.1 SW 30 37 16 20 1018.8 - -
27/05:00pm 14.3 7.0 5.6 56 4.1 SW 33 41 18 22 1018.7 - -
27/04:50pm 14.6 6.9 7.0 60 3.7 SW 37 44 20 24 1018.6 - -
27/04:40pm 14.8 7.6 4.9 51 4.6 SW 32 43 17 23 1018.8 - -
27/04:30pm 14.9 7.7 4.9 51 4.7 SSW 32 39 17 21 1018.9 - -
27/04:20pm 14.7 8.4 5.5 54 4.4 SSW 28 41 15 22 1019.2 - -
27/04:10pm 14.4 8.5 5.7 56 4.1 SSW 26 33 14 18 1019.4 - -
27/04:00pm 14.1 6.9 4.8 53 4.3 SSW 32 39 17 21 1019.6 - -
27/03:50pm 14.0 6.7 4.4 52 4.4 SSW 32 39 17 21 1019.7 - -
27/03:40pm 14.2 5.8 5.8 57 4.0 SSW 39 50 21 27 1019.8 - -
27/03:30pm 14.9 5.9 6.2 56 4.2 SW 43 56 23 30 1019.0 - -
27/03:20pm 14.9 7.4 4.7 50 4.8 SSW 33 46 18 25 1019.1 - -
27/03:10pm 14.3 7.5 5.2 54 4.3 SSW 30 39 16 21 1019.6 - -
27/03:00pm 14.7 6.5 4.6 50 4.7 SSW 37 46 20 25 1019.5 - -
27/02:50pm 14.6 7.3 4.5 50 4.7 SSW 32 41 17 22 1019.4 - -
27/02:40pm 15.1 7.2 4.3 48 5.0 SSW 35 43 19 23 1018.9 - -
27/02:30pm 15.3 7.1 5.0 50 4.9 SW 37 46 20 25 1018.4 - -
27/02:20pm 15.3 7.3 3.9 46 5.3 SSW 35 43 19 23 1018.8 - -
27/02:10pm 15.2 7.3 4.3 48 5.1 SSW 35 43 19 23 1018.8 - -
27/02:00pm 14.8 8.3 4.5 50 4.8 SSW 28 41 15 22 1018.9 - -
27/01:50pm 14.6 7.1 3.7 48 5.0 SSW 32 43 17 23 1019.3 - -
27/01:40pm 14.3 5.3 4.8 53 4.4 SSW 41 54 22 29 1019.5 - -
27/01:30pm 15.1 6.9 4.8 50 4.8 SSW 37 50 20 27 1019.2 - -
27/01:20pm 15.2 7.8 5.2 51 4.7 SSW 33 41 18 22 1019.0 - -
27/01:10pm 15.0 8.1 4.7 50 4.8 SSW 30 39 16 21 1018.8 - -
27/01:00pm 15.2 8.6 4.4 48 5.0 SSW 28 37 15 20 1018.7 - -
27/12:50pm 14.9 8.6 3.7 47 5.1 SSW 26 32 14 17 1018.8 - -
27/12:40pm 14.5 8.7 4.2 50 4.7 SSW 24 32 13 17 1019.0 - -
27/12:30pm 14.5 8.6 3.7 48 4.9 SSW 24 33 13 18 1019.2 - -
27/12:20pm 14.4 8.8 3.6 48 4.9 SSW 22 33 12 18 1019.2 - -
27/12:10pm 14.6 8.6 3.5 47 5.0 SSW 24 33 13 18 1019.3 - -
27/12:00pm 14.8 8.7 2.6 44 5.4 SSW 24 37 13 20 1019.3 - -
27/11:50am 14.5 8.5 3.4 47 5.0 SSW 24 30 13 16 1019.4 - -
27/11:40am 14.2 7.9 4.0 50 4.7 SSW 26 37 14 20 1019.6 - -
27/11:30am 14.7 8.4 3.7 47 5.0 SSW 26 33 14 18 1019.5 - -
27/11:20am 14.9 8.5 3.1 45 5.3 SSW 26 35 14 19 1019.4 - -
27/11:10am 14.7 8.7 3.5 47 5.1 SSW 24 33 13 18 1019.3 - -
27/11:00am 14.3 8.5 4.6 52 4.5 SSW 24 35 13 19 1019.3 - -
27/10:50am 13.5 8.7 5.4 58 3.8 S 20 28 11 15 1019.4 - -
27/10:40am 13.2 8.6 5.5 59 3.6 S 19 24 10 13 1019.4 - -
27/10:30am 13.1 7.9 5.3 59 3.6 S 22 32 12 17 1019.4 - -
27/10:20am 13.1 7.9 5.6 60 3.5 S 22 35 12 19 1019.3 - -
27/10:10am 12.8 8.2 5.5 61 3.4 S 19 28 10 15 1019.3 - -
27/10:00am 12.6 7.4 5.6 62 3.3 SSE 22 32 12 17 1019.3 - -
27/09:50am 12.2 7.7 6.1 66 2.9 SSE 19 26 10 14 1019.3 - -
27/09:40am 12.4 5.8 5.9 64 3.1 S 30 41 16 22 1019.6 - -
27/09:30am 12.9 6.5 5.0 58 3.7 S 28 43 15 23 1019.5 - -
27/09:20am 12.4 8.0 4.9 60 3.4 SSE 17 28 9 15 1019.3 - -
27/09:10am 11.8 7.3 4.2 59 3.4 SSE 17 32 9 17 1019.4 - -
27/09:00am 12.8 4.7 5.1 59 3.6 S 37 52 20 28 1020.0 - -
27/08:50am 13.1 7.7 4.7 56 3.9 S 22 32 12 17 1019.3 - -
27/08:40am 13.1 7.1 3.2 51 4.4 S 24 37 13 20 1019.1 - -
27/08:30am 12.5 6.4 4.7 59 3.6 S 26 35 14 19 1019.1 - -
27/08:20am 12.9 6.5 5.0 58 3.7 S 28 41 15 22 1019.1 - -
27/08:10am 13.3 6.0 4.4 55 4.1 S 32 48 17 26 1018.9 - -
27/08:00am 13.4 6.7 3.9 52 4.3 S 28 33 15 18 1018.7 - -
27/07:50am 13.3 6.3 4.0 53 4.2 S 30 39 16 21 1018.5 - -
27/07:40am 13.2 6.1 3.8 53 4.2 S 30 37 16 20 1018.3 - -
27/07:30am 13.2 5.8 3.8 53 4.2 S 32 43 17 23 1018.3 - -
27/07:20am 13.1 5.5 4.0 54 4.1 S 33 41 18 22 1017.9 - -
27/07:10am 13.1 5.5 3.8 53 4.2 S 33 43 18 23 1018.0 - -
27/07:00am 13.1 5.6 4.2 54 4.1 S 33 43 18 23 1017.9 - -
27/06:50am 13.1 6.2 4.6 56 3.9 S 30 39 16 21 1017.6 - -
27/06:40am 13.0 6.1 4.7 57 3.8 S 30 37 16 20 1017.6 - -
27/06:30am 13.0 6.1 4.8 57 3.8 S 30 37 16 20 1017.4 - -
27/06:20am 12.9 6.4 4.8 58 3.7 S 28 39 15 21 1017.2 - -
27/06:10am 12.9 6.0 4.7 57 3.8 S 30 39 16 21 1017.1 - -
27/06:00am 12.8 6.3 4.7 58 3.7 S 28 37 15 20 1016.9 - -
27/05:50am 12.8 5.9 4.6 57 3.8 S 30 37 16 20 1016.8 - -
27/05:40am 12.8 6.3 4.7 58 3.7 S 28 39 15 21 1016.8 - -
27/05:30am 12.9 6.4 4.8 58 3.7 S 28 37 15 20 1016.7 - -
27/05:20am 12.9 6.4 4.7 57 3.8 SSE 28 41 15 22 1016.5 - -
27/05:00am 12.8 6.2 4.4 56 3.8 S 28 35 15 19 1016.3 - -
27/04:50am 13.0 6.0 4.3 55 4.0 S 30 39 16 21 1016.2 - -
27/04:40am 13.0 5.8 4.9 58 3.7 S 32 39 17 21 1016.1 - -
27/04:30am 12.9 6.0 4.8 58 3.7 S 30 39 16 21 1016.2 - -
27/04:20am 12.9 5.7 4.9 58 3.7 S 32 41 17 22 1016.2 - -
27/04:10am 12.9 5.8 5.3 60 3.5 S 32 41 17 22 1016.0 - -
27/04:00am 12.8 5.7 5.5 61 3.4 S 32 43 17 23 1015.9 - -
27/03:50am 12.8 6.0 5.2 60 3.5 S 30 37 16 20 1015.8 - -
27/03:40am 12.9 5.7 5.2 59 3.6 S 32 44 17 24 1015.8 - -
27/03:30am 12.9 5.7 5.0 58 3.7 S 32 41 17 22 1015.7 - -
27/03:20am 12.9 6.0 4.5 56 3.8 S 30 43 16 23 1015.7 - -
27/03:10am 12.9 6.0 4.5 56 3.8 S 30 39 16 21 1015.6 - -
27/03:00am 13.0 6.2 5.1 58 3.7 S 30 39 16 21 1015.6 - -
27/02:50am 13.1 5.8 4.5 56 3.9 S 32 39 17 21 1015.7 - -
27/02:40am 13.2 6.4 4.9 57 3.8 S 30 37 16 20 1015.7 - -
27/02:30am 13.2 5.2 4.0 53 4.2 S 35 43 19 23 1015.7 - -
27/02:20am 13.3 5.6 3.3 50 4.5 SSE 33 41 18 22 1015.7 - -
27/02:10am 13.4 5.9 3.3 50 4.5 SSE 32 43 17 23 1015.5 - -
27/02:00am 13.5 5.8 3.2 49 4.6 SSE 33 48 18 26 1015.6 - -
27/01:50am 13.6 6.5 3.6 51 4.5 SSE 30 43 16 23 1015.5 - -
27/01:40am 13.7 6.6 3.7 51 4.5 SSE 30 41 16 22 1015.2 - -
27/01:30am 13.6 6.9 3.4 50 4.6 S 28 39 15 21 1015.2 - -
27/01:20am 13.6 7.2 3.4 50 4.6 S 26 35 14 19 1015.0 - -
27/01:10am 13.8 7.4 3.1 48 4.8 S 26 39 14 21 1015.1 - -
27/01:00am 13.7 8.1 3.7 51 4.5 S 22 33 12 18 1015.0 - -
27/12:50am 13.6 7.6 3.3 49 4.6 S 24 33 13 18 1014.9 - -
27/12:40am 13.6 8.0 3.3 49 4.6 S 22 32 12 17 1014.8 - -
27/12:30am 13.6 7.9 2.7 47 4.8 S 22 32 12 17 1014.8 - -
27/12:20am 13.6 8.6 4.5 54 4.2 SSW 20 33 11 18 1014.6 - -
27/12:10am 13.4 9.5 5.5 59 3.7 SSW 15 24 8 13 1014.5 - -
27/12:00am 13.2 9.0 5.5 59 3.6 SSW 17 20 9 11 1014.4 - -
 
Date/Time
EST
Temp
°C
App
Temp
°C
Dew
Point
°C
Rel
Hum
%
Delta-T
°C
Wind Press
QNH
hPa
Press
MSL
hPa
Rain since
9am
mm
Dir  Spd
km/h
Gust
km/h
Spd
kts
Gust
kts
26/11:50pm 13.1 9.5 5.0 58 3.8 SSW 13 19 7 10 1014.2 - -
26/11:40pm 12.9 9.7 4.9 58 3.7 SSW 11 17 6 9 1014.2 - -
26/11:30pm 12.8 9.9 4.6 57 3.8 SSW 9 17 5 9 1014.3 - -
26/11:20pm 12.5 9.4 3.8 55 3.9 SSW 9 13 5 7 1014.2 - -
26/11:10pm 12.2 9.8 4.1 57 3.7 SSW 6 11 3 6 1014.0 - -
26/11:00pm 12.1 8.9 3.3 55 3.9 SSW 9 17 5 9 1014.2 - -
26/10:50pm 12.2 6.9 2.0 49 4.4 S 19 32 10 17 1014.4 - -
26/10:40pm 11.5 4.0 4.6 62 3.1 S 33 44 18 24 1014.9 - -
26/10:30pm 11.8 3.6 4.9 62 3.2 S 37 46 20 25 1015.0 - -
26/10:20pm 11.5 4.2 5.6 67 2.7 S 33 39 18 21 1014.8 - -
26/10:10pm 12.4 7.2 5.7 63 3.1 SSE 22 48 12 26 1014.2 - -
26/10:00pm 15.2 11.7 5.5 52 4.6 SW 13 22 7 12 1013.5 - -
26/09:50pm 13.2 7.0 4.3 55 4.1 SW 26 37 14 20 1013.2 - -
26/09:40pm 13.5 5.3 4.8 55 4.0 SW 37 46 20 25 1012.9 - -
26/09:30pm 13.9 5.4 5.0 55 4.2 SSW 39 46 21 25 1013.3 - -
26/09:20pm 13.9 7.8 5.0 55 4.2 SW 26 35 14 19 1013.0 - -
26/09:10pm 13.5 6.6 4.7 55 4.1 SW 30 39 16 21 1012.8 - -
26/09:00pm 13.5 6.3 5.1 57 3.9 SW 32 39 17 21 1012.7 - -
26/08:50pm 13.3 6.3 4.3 54 4.1 SSW 30 37 16 20 1013.3 - -
26/08:40pm 13.1 5.6 4.5 56 3.9 S 33 43 18 23 1013.4 - -
26/08:30pm 13.0 4.4 4.7 57 3.8 S 39 46 21 25 1013.4 - -
26/08:20pm 13.3 5.4 4.4 55 4.1 SSW 35 44 19 24 1013.4 - -
26/08:10pm 13.6 5.3 4.2 53 4.3 SSW 37 44 20 24 1013.2 - -
26/08:00pm 14.1 6.6 4.4 52 4.5 SSW 33 41 18 22 1012.8 - -
26/07:50pm 14.5 6.9 4.0 49 4.8 SSW 33 43 18 23 1012.4 - -
26/07:40pm 14.3 6.7 3.9 49 4.8 SSW 33 41 18 22 1012.3 - -
26/07:30pm 14.3 6.7 3.7 49 4.8 SW 33 43 18 23 1012.1 - -
26/07:20pm 14.3 6.3 3.7 49 4.8 SSW 35 44 19 24 1012.2 - -
26/07:10pm 14.4 6.1 4.3 50 4.7 SW 37 50 20 27 1011.8 - -
26/07:00pm 14.5 5.5 4.7 52 4.6 SW 41 52 22 28 1011.9 - -
26/06:50pm 14.5 5.9 4.8 52 4.5 SSW 39 50 21 27 1011.7 - -
26/06:40pm 14.3 6.4 4.6 52 4.5 SSW 35 46 19 25 1011.9 - -
26/06:30pm 14.3 5.5 3.4 48 4.9 SSW 39 52 21 28 1012.1 - -
26/06:20pm 14.4 5.1 3.2 47 5.0 SSW 41 52 22 28 1011.9 - -
26/06:10pm 14.6 4.9 3.0 45 5.2 SSW 43 54 23 29 1011.6 - -
26/06:00pm 14.6 4.9 2.9 45 5.2 SSW 43 50 23 27 1011.6 - -
26/05:50pm 14.5 4.3 3.0 46 5.2 SSW 46 57 25 31 1011.2 - -
26/05:40pm 14.5 4.4 3.6 48 5.0 SSW 46 56 25 30 1011.1 - -
26/05:30pm 14.5 4.4 4.0 49 4.8 SSW 46 59 25 32 1010.9 - -
26/05:20pm 14.2 3.7 3.8 49 4.7 SSW 48 57 26 31 1011.1 - -
26/05:10pm 14.6 4.3 4.5 50 4.7 SSW 48 57 26 31 1010.1 - -
26/05:00pm 14.7 4.3 4.1 49 4.9 SSW 48 59 26 32 1010.2 - -
26/04:50pm 14.7 4.1 5.0 52 4.6 SSW 50 61 27 33 1009.6 - -
26/04:40pm 14.6 4.0 4.9 52 4.5 SSW 50 61 27 33 1010.2 - -
26/04:30pm 14.7 3.6 4.4 50 4.8 SSW 52 61 28 33 1009.8 - -
26/04:20pm 14.9 4.0 5.5 53 4.5 SSW 52 65 28 35 1009.9 - -
26/04:10pm 15.1 3.8 5.4 52 4.6 SSW 54 65 29 35 1009.3 - -
26/04:00pm 15.3 4.2 6.2 54 4.4 SSW 54 61 29 33 1008.9 - -
26/03:50pm 15.4 4.0 6.7 56 4.3 SSW 56 65 30 35 1008.6 - -
26/03:40pm 15.4 4.0 6.9 57 4.2 SSW 56 65 30 35 1008.3 - -
26/03:30pm 15.6 4.4 7.7 59 3.9 SSW 56 65 30 35 1008.4 - -
26/03:20pm 15.8 4.6 7.4 57 4.2 SSW 56 67 30 36 1008.0 - -
26/03:10pm 15.7 4.5 7.4 57 4.1 SSW 56 63 30 34 1008.2 - -
26/03:00pm 15.9 4.5 7.4 57 4.2 SSW 57 67 31 36 1007.9 - -
26/02:50pm 16.0 4.6 7.5 57 4.2 SSW 57 70 31 38 1007.3 - -
26/02:40pm 16.0 4.7 8.1 59 4.0 SSW 57 72 31 39 1006.9 - -
26/02:30pm 15.9 4.2 8.0 59 4.0 SSW 59 69 32 37 1007.7 - -
26/02:20pm 16.2 5.2 8.6 60 3.9 SSW 56 67 30 36 1007.1 - -
26/02:10pm 16.2 4.6 8.4 60 4.0 SSW 59 69 32 37 1007.1 - -
26/01:50pm 16.1 5.0 8.9 62 3.7 SSW 57 70 31 38 1007.0 - -
26/01:40pm 16.1 4.5 8.4 60 3.9 SSW 59 69 32 37 1006.8 - -
26/01:30pm 16.5 5.0 8.7 60 4.0 SSW 59 72 32 39 1006.3 - -
26/01:20pm 16.4 5.3 8.9 61 3.9 SSW 57 69 31 37 1006.5 - -
26/01:10pm 16.5 5.0 8.8 60 4.0 SSW 59 70 32 38 1006.2 - -
26/01:00pm 16.6 5.6 9.2 61 3.8 SSW 57 67 31 36 1006.1 - -
26/12:50pm 16.7 5.7 9.3 61 3.8 SSW 57 67 31 36 1005.8 - -
26/12:40pm 16.8 6.1 9.6 62 3.8 SSW 56 67 30 36 1005.4 - -
26/12:30pm 16.9 5.6 9.6 62 3.8 SW 59 70 32 38 1004.8 - -
26/12:20pm 17.1 6.8 9.7 61 3.9 SW 54 65 29 35 1004.9 - -
26/12:10pm 17.1 7.2 9.7 61 3.9 SW 52 63 28 34 1004.6 - -
26/12:00pm 17.1 6.4 9.5 61 4.0 SW 56 67 30 36 1004.5 - -
26/11:50am 17.1 6.8 9.6 61 3.9 SW 54 63 29 34 1004.8 - -
26/11:40am 17.1 6.8 9.8 62 3.8 SW 54 65 29 35 1004.6 - -

Other Formats:

Comma delimited format used in spreadsheet applications
http://www.bom.gov.au/fwo/IDV60801/IDV60801.55039.axf

JavaScript Object Notation format (JSON) in row-major order
http://www.bom.gov.au/fwo/IDV60801/IDV60801.55039.json